Hagali, Minnesota
Current Conditions -  °F | °C
As of 11:54 PM on Tuesday 21 Oct 2014 (Local Time) from KBJI Reporting Station
Clear Clear  
Wind Chill: 41°   Ceiling: Unl
Heat Index: 47°   Visibility: 10mi
Dew Point: 38°   Wind: 14mph
Humidity: 73%   Direction: 150°SSE
Pressure: 30.04"   Gusts: NA
Location:  47.7615°N, 94.6741°W
Report Text: KBJI 220454Z AUTO 15012KT 10SM CLR 08/04 A3004 RMK AO2 T00810035
Loading
Personal Weather Stations






























Interactive Weather Map
Tropical Storm Tracking
New forecast layout! Learn more

10-Day Weather Forecast

Advertisements
Track Severe Weather on mobile